Time;durP1;ratioP1;P1;durP2;ratioP2;P2;SDS_P1;SDS_P2;PMS_P1;PMS_P2;Temp;Humidity;BMP_temperature;BMP_pressure;BME280_temperature;BME280_humidity;BME280_pressure;Samples;Min_cycle;Max_cycle;Signal;HPM_P1;HPM_P2
2023/05/05 00:00:33;;;;;;;7.95;3.08;;;20.90;44.70;;;;;;5050551;28;20387;-74
2023/05/05 00:02:59;;;;;;;9.38;3.05;;;20.90;44.90;;;;;;5051554;28;20021;-74
2023/05/05 00:05:24;;;;;;;9.73;2.92;;;21.00;45.00;;;;;;5033687;28;20435;-74
2023/05/05 00:07:50;;;;;;;8.20;2.97;;;20.90;45.00;;;;;;5050325;28;20025;-73
2023/05/05 00:10:17;;;;;;;6.85;2.75;;;21.00;45.20;;;;;;5052007;28;20025;-74
2023/05/05 00:12:43;;;;;;;7.20;2.75;;;21.00;45.30;;;;;;5011970;28;20033;-74
2023/05/05 00:15:09;;;;;;;8.98;3.28;;;21.10;45.40;;;;;;5051188;28;20025;-75
2023/05/05 00:17:35;;;;;;;11.93;3.05;;;21.00;45.50;;;;;;5051794;28;20389;-76
2023/05/05 00:20:01;;;;;;;7.35;3.00;;;21.00;45.60;;;;;;5052083;28;20117;-75
2023/05/05 00:22:27;;;;;;;11.00;3.17;;;21.10;45.70;;;;;;5050020;28;20040;-75
2023/05/05 00:24:53;;;;;;;7.05;2.78;;;21.10;45.80;;;;;;5052155;28;20025;-75
2023/05/05 00:27:19;;;;;;;7.35;2.92;;;21.10;45.90;;;;;;5033507;28;20047;-75
2023/05/05 00:29:44;;;;;;;14.23;3.17;;;21.10;46.00;;;;;;5050306;28;20037;-74
2023/05/05 00:32:10;;;;;;;9.63;2.85;;;21.10;45.90;;;;;;5052267;28;20029;-74
2023/05/05 00:34:36;;;;;;;16.98;2.65;;;21.10;46.20;;;;;;5052079;28;20489;-74
2023/05/05 00:37:02;;;;;;;10.73;2.55;;;21.10;46.40;;;;;;5051802;28;20099;-74
2023/05/05 00:39:28;;;;;;;17.33;2.85;;;21.10;46.50;;;;;;5035367;28;20039;-74
2023/05/05 00:41:54;;;;;;;15.63;3.28;;;21.10;46.60;;;;;;5035366;28;20029;-74
2023/05/05 00:44:36;;;;;;;19.40;2.78;;;21.10;46.70;;;;;;5053278;28;20033;-74
2023/05/05 00:47:02;;;;;;;16.17;3.00;;;21.10;46.70;;;;;;5053087;28;20028;-74
2023/05/05 00:49:28;;;;;;;14.18;3.28;;;21.10;46.80;;;;;;5051499;28;20029;-74
2023/05/05 00:51:55;;;;;;;13.02;3.03;;;21.10;47.00;;;;;;5053211;28;20112;-74
2023/05/05 00:54:21;;;;;;;11.40;2.60;;;21.10;47.10;;;;;;5051775;28;20104;-74
2023/05/05 00:56:49;;;;;;;11.90;2.80;;;21.10;47.20;;;;;;5051661;28;20079;-74
2023/05/05 00:59:16;;;;;;;12.05;2.85;;;21.10;47.20;;;;;;5051486;28;20039;-74
2023/05/05 01:01:42;;;;;;;11.93;2.70;;;21.10;47.30;;;;;;5052930;28;20033;-75
2023/05/05 01:04:08;;;;;;;15.57;2.72;;;21.10;47.50;;;;;;5052895;28;20039;-76
2023/05/05 01:06:46;;;;;;;11.30;3.00;;;21.10;47.50;;;;;;5051557;28;20382;-76
2023/05/05 01:09:30;;;;;;;9.15;3.03;;;21.10;47.50;;;;;;5051349;28;20040;-75
2023/05/05 01:12:06;;;;;;;17.70;3.15;;;21.10;47.50;;;;;;5051822;28;20029;-75
2023/05/05 01:14:42;;;;;;;10.13;2.30;;;21.10;47.50;;;;;;5052871;28;20509;-75
2023/05/05 01:17:27;;;;;;;16.80;3.70;;;21.10;47.60;;;;;;5052131;28;20154;-76
2023/05/05 01:20:23;;;;;;;10.13;2.92;;;21.10;47.60;;;;;;5051435;28;20056;-76
2023/05/05 01:22:58;;;;;;;14.93;3.25;;;21.10;47.60;;;;;;5023388;28;20045;-76
2023/05/05 01:26:10;;;;;;;9.05;2.95;;;21.10;47.70;;;;;;5051230;28;20513;-75
2023/05/05 01:29:01;;;;;;;13.18;2.80;;;21.10;47.70;;;;;;5009925;28;20108;-76
2023/05/05 01:31:51;;;;;;;9.13;2.50;;;21.10;47.80;;;;;;5051054;28;20025;-75
2023/05/05 01:34:28;;;;;;;11.80;3.00;;;21.10;47.80;;;;;;5052374;28;20064;-75
2023/05/05 01:37:06;;;;;;;15.25;2.78;;;21.10;47.90;;;;;;5051991;28;20055;-75
2023/05/05 01:39:35;;;;;;;9.15;2.47;;;21.10;47.90;;;;;;5050822;28;20033;-76
2023/05/05 01:42:07;;;;;;;16.65;3.13;;;21.10;48.50;;;;;;5050888;28;20036;-75
2023/05/05 01:44:36;;;;;;;13.02;2.83;;;21.10;48.50;;;;;;5050795;28;20033;-75
2023/05/05 01:47:03;;;;;;;11.07;2.95;;;21.10;48.00;;;;;;5050703;28;20025;-75
2023/05/05 01:49:31;;;;;;;6.28;2.70;;;21.10;48.00;;;;;;5050457;28;20025;-75
2023/05/05 01:51:58;;;;;;;8.55;3.10;;;21.10;48.00;;;;;;5034203;28;20036;-75
2023/05/05 01:54:25;;;;;;;10.45;2.42;;;21.10;48.10;;;;;;5034121;28;20039;-75
2023/05/05 01:56:55;;;;;;;7.68;2.63;;;21.10;48.10;;;;;;5034036;28;20114;-75
2023/05/05 01:59:24;;;;;;;6.35;2.60;;;21.10;48.10;;;;;;5050418;28;20029;-75
2023/05/05 02:01:51;;;;;;;8.30;2.80;;;21.10;48.10;;;;;;5050642;28;20086;-74
2023/05/05 02:04:21;;;;;;;7.32;2.42;;;21.10;48.20;;;;;;5051778;28;20490;-75
2023/05/05 02:06:51;;;;;;;10.90;3.08;;;21.10;48.20;;;;;;5050330;28;20086;-75
2023/05/05 02:09:19;;;;;;;10.45;2.33;;;21.10;48.20;;;;;;5051458;28;20401;-74
2023/05/05 02:11:45;;;;;;;7.05;2.70;;;21.00;48.20;;;;;;5051533;28;20044;-74
2023/05/05 02:14:11;;;;;;;6.55;2.33;;;21.10;48.30;;;;;;5033782;28;20033;-74
2023/05/05 02:16:40;;;;;;;7.03;2.30;;;21.10;48.20;;;;;;5050207;28;20028;-74
2023/05/05 02:19:06;;;;;;;7.47;2.85;;;21.00;48.20;;;;;;5049877;28;20414;-74
2023/05/05 02:21:33;;;;;;;8.88;2.30;;;21.10;48.30;;;;;;5051517;28;20029;-74
2023/05/05 02:23:59;;;;;;;7.93;2.88;;;21.10;48.20;;;;;;5033722;28;20036;-74
2023/05/05 02:26:28;;;;;;;6.43;2.38;;;21.10;48.20;;;;;;5017012;28;20056;-74
2023/05/05 02:29:03;;;;;;;6.35;3.05;;;21.10;48.30;;;;;;5050549;28;20040;-74
2023/05/05 02:31:31;;;;;;;6.88;2.70;;;21.10;48.30;;;;;;5051324;28;20057;-74
2023/05/05 02:34:00;;;;;;;5.20;2.20;;;21.10;48.30;;;;;;5033761;28;20025;-74
2023/05/05 02:36:35;;;;;;;6.07;2.20;;;21.10;48.30;;;;;;5033272;28;20033;-74
2023/05/05 02:39:09;;;;;;;7.47;2.40;;;21.10;48.40;;;;;;5049756;28;20113;-74
2023/05/05 02:41:38;;;;;;;11.48;2.30;;;21.10;48.40;;;;;;5050067;28;20036;-74
2023/05/05 02:44:12;;;;;;;3.67;2.20;;;21.10;48.50;;;;;;5050154;28;20112;-74
2023/05/05 02:46:41;;;;;;;6.38;2.15;;;21.10;48.50;;;;;;5050022;28;20401;-75
2023/05/05 02:49:07;;;;;;;6.78;2.40;;;21.10;48.50;;;;;;5049584;28;20033;-74
2023/05/05 02:51:33;;;;;;;6.90;2.30;;;21.10;48.50;;;;;;5049894;28;20029;-74
2023/05/05 02:54:03;;;;;;;6.05;2.03;;;21.10;48.60;;;;;;5050016;28;20025;-74
2023/05/05 02:56:41;;;;;;;4.72;2.28;;;21.00;48.50;;;;;;5050951;28;20017;-74
2023/05/05 02:59:25;;;;;;;6.28;2.42;;;21.10;48.70;;;;;;5049637;28;20040;-74
2023/05/05 03:02:05;;;;;;;10.57;2.80;;;21.00;48.70;;;;;;5049801;28;20029;-74
2023/05/05 03:04:40;;;;;;;5.10;2.17;;;21.00;48.70;;;;;;5050054;28;20033;-74
2023/05/05 03:07:13;;;;;;;5.55;2.30;;;21.00;48.60;;;;;;5033084;28;20035;-74
2023/05/05 03:09:50;;;;;;;4.07;2.08;;;21.00;48.60;;;;;;5049768;28;20498;-75
2023/05/05 03:12:21;;;;;;;6.97;2.13;;;21.10;48.70;;;;;;5049707;28;20040;-75
2023/05/05 03:15:00;;;;;;;6.00;2.50;;;21.10;48.70;;;;;;5049791;28;20024;-76
2023/05/05 03:17:29;;;;;;;8.00;2.83;;;21.10;48.70;;;;;;5049186;28;20036;-75
2023/05/05 03:19:56;;;;;;;5.78;2.33;;;21.10;48.70;;;;;;5049667;28;20043;-75
2023/05/05 03:22:22;;;;;;;5.50;2.10;;;21.10;48.60;;;;;;5032916;28;20029;-75
2023/05/05 03:24:51;;;;;;;5.78;2.30;;;21.00;49.10;;;;;;5033183;28;20029;-75
2023/05/05 03:27:20;;;;;;;4.47;2.50;;;21.00;48.60;;;;;;5049412;28;20078;-75
2023/05/05 03:29:46;;;;;;;5.07;2.28;;;21.00;48.60;;;;;;5049515;28;20456;-75
2023/05/05 03:32:14;;;;;;;8.63;2.40;;;21.10;48.70;;;;;;5049517;28;20029;-75
2023/05/05 03:34:41;;;;;;;5.03;2.63;;;21.10;48.80;;;;;;5033402;28;20107;-75
2023/05/05 03:37:06;;;;;;;7.38;2.47;;;21.10;48.80;;;;;;5069715;23;20123;-79
2023/05/05 03:39:32;;;;;;;4.70;2.58;;;21.10;48.80;;;;;;5073416;28;20021;-79
2023/05/05 03:41:58;;;;;;;5.80;2.58;;;21.10;48.80;;;;;;5020226;28;20478;-79
2023/05/05 03:44:28;;;;;;;6.05;2.80;;;21.00;48.80;;;;;;5069862;28;20033;-79
2023/05/05 03:46:54;;;;;;;5.25;2.33;;;21.10;48.90;;;;;;5069802;28;20039;-79
2023/05/05 03:49:20;;;;;;;8.38;2.40;;;21.10;49.00;;;;;;5052789;28;20025;-79
2023/05/05 03:51:47;;;;;;;8.02;2.03;;;21.10;49.00;;;;;;5053087;28;20372;-79
2023/05/05 03:54:13;;;;;;;5.20;2.30;;;21.10;49.00;;;;;;5052965;28;20021;-79
2023/05/05 03:56:40;;;;;;;5.47;2.20;;;21.10;49.10;;;;;;5053078;28;20398;-79
2023/05/05 03:59:07;;;;;;;4.15;2.03;;;21.10;49.00;;;;;;5052418;28;20029;-79
2023/05/05 04:01:34;;;;;;;3.92;1.85;;;21.10;49.10;;;;;;5052921;28;20044;-80
2023/05/05 04:04:01;;;;;;;5.35;2.50;;;21.10;49.40;;;;;;5052890;28;20032;-81
2023/05/05 04:06:26;;;;;;;7.22;2.58;;;21.10;49.30;;;;;;5052686;28;20029;-79
2023/05/05 04:08:53;;;;;;;7.57;2.30;;;21.10;49.20;;;;;;5035635;28;20411;-79
2023/05/05 04:11:20;;;;;;;10.43;2.33;;;21.10;49.30;;;;;;5052664;28;20033;-79
2023/05/05 04:13:48;;;;;;;7.82;2.05;;;21.10;49.20;;;;;;5052479;28;20029;-79
2023/05/05 04:16:15;;;;;;;4.20;2.10;;;21.10;49.30;;;;;;5035912;28;20521;-79
2023/05/05 04:18:41;;;;;;;6.45;2.40;;;21.10;49.30;;;;;;5052162;28;20398;-79
2023/05/05 04:21:07;;;;;;;7.55;2.35;;;21.10;49.30;;;;;;5052406;28;20029;-80
2023/05/05 04:23:33;;;;;;;6.25;2.63;;;21.10;49.30;;;;;;5035722;28;20459;-79
2023/05/05 04:25:59;;;;;;;8.07;2.83;;;21.10;49.30;;;;;;5052387;28;20035;-80
2023/05/05 04:28:26;;;;;;;5.00;2.20;;;21.10;49.40;;;;;;5051742;28;20112;-80
2023/05/05 04:30:51;;;;;;;5.10;2.10;;;21.10;49.40;;;;;;5052459;28;20530;-79
2023/05/05 04:33:17;;;;;;;4.15;2.30;;;21.20;49.60;;;;;;5052098;28;20060;-79
2023/05/05 04:35:45;;;;;;;5.57;2.42;;;21.10;49.40;;;;;;5052125;28;20036;-79
2023/05/05 04:38:11;;;;;;;4.43;2.38;;;21.10;49.50;;;;;;5051523;28;20170;-79
2023/05/05 04:40:39;;;;;;;5.43;2.33;;;21.10;49.60;;;;;;5052139;28;20475;-80
2023/05/05 04:43:06;;;;;;;5.85;2.50;;;21.10;49.60;;;;;;5052202;28;20025;-80
2023/05/05 04:45:32;;;;;;;6.55;2.40;;;21.10;49.60;;;;;;5052188;28;20056;-79
2023/05/05 04:47:59;;;;;;;5.10;2.60;;;21.20;49.60;;;;;;5051564;28;20049;-80
2023/05/05 04:50:24;;;;;;;5.45;2.40;;;21.10;49.70;;;;;;5051242;28;20033;-80
2023/05/05 04:52:50;;;;;;;5.38;2.50;;;21.10;49.70;;;;;;5051930;28;20032;-80
2023/05/05 04:55:16;;;;;;;8.00;2.60;;;21.10;49.80;;;;;;5051889;28;20474;-79
2023/05/05 04:57:42;;;;;;;6.82;2.30;;;21.10;49.80;;;;;;5051223;28;20025;-80
2023/05/05 05:00:08;;;;;;;6.03;2.40;;;21.10;49.70;;;;;;5051680;28;20032;-83
2023/05/05 05:02:36;;;;;;;4.07;2.25;;;21.10;50.10;;;;;;5051763;28;20379;-82
2023/05/05 05:05:02;;;;;;;6.63;2.72;;;21.10;49.80;;;;;;5051515;28;20406;-82
2023/05/05 05:07:28;;;;;;;8.52;2.53;;;21.10;49.80;;;;;;5051146;28;20630;-82
2023/05/05 05:09:53;;;;;;;6.05;2.45;;;21.10;49.90;;;;;;5051456;28;20021;-80
2023/05/05 05:12:19;;;;;;;7.75;2.53;;;21.10;49.90;;;;;;5052739;28;20025;-80
2023/05/05 05:14:45;;;;;;;10.35;2.80;;;21.10;49.90;;;;;;5051460;28;20052;-81
2023/05/05 05:17:11;;;;;;;7.13;2.63;;;21.10;49.80;;;;;;5051084;28;20063;-82
2023/05/05 05:19:38;;;;;;;5.68;2.42;;;21.20;50.00;;;;;;5052640;28;20036;-82
2023/05/05 05:22:03;;;;;;;4.40;2.25;;;21.10;50.00;;;;;;5051274;28;20108;-82
2023/05/05 05:24:33;;;;;;;5.85;2.67;;;21.20;49.90;;;;;;5051075;28;20025;-82
2023/05/05 05:27:00;;;;;;;7.50;2.60;;;21.20;50.10;;;;;;5051040;28;20056;-82
2023/05/05 05:29:26;;;;;;;10.55;2.88;;;21.20;50.10;;;;;;5050739;28;20453;-81
2023/05/05 05:31:52;;;;;;;6.85;2.78;;;21.20;50.00;;;;;;5051145;28;20031;-80
2023/05/05 05:34:18;;;;;;;8.95;3.08;;;21.20;50.10;;;;;;5034361;28;20024;-80
2023/05/05 05:36:44;;;;;;;8.10;2.67;;;21.20;50.10;;;;;;5050881;28;20021;-80
2023/05/05 05:39:10;;;;;;;6.68;2.60;;;21.20;50.10;;;;;;5051720;28;20116;-80
2023/05/05 05:41:37;;;;;;;5.35;2.58;;;21.10;50.00;;;;;;5034145;28;20039;-80
2023/05/05 05:44:02;;;;;;;6.65;2.95;;;21.20;50.00;;;;;;5050861;28;20518;-80
2023/05/05 05:46:29;;;;;;;7.15;2.40;;;21.20;50.30;;;;;;5050588;28;20036;-80
2023/05/05 05:48:55;;;;;;;6.28;2.40;;;21.20;50.20;;;;;;5050288;28;20124;-80
2023/05/05 05:51:21;;;;;;;12.20;2.58;;;21.20;50.50;;;;;;5050793;28;20049;-81
2023/05/05 05:53:47;;;;;;;7.53;2.40;;;21.20;50.70;;;;;;5050724;28;20024;-81
2023/05/05 05:56:13;;;;;;;16.65;3.20;;;21.20;50.50;;;;;;5033853;28;20433;-81
2023/05/05 05:58:39;;;;;;;12.50;2.95;;;21.20;50.50;;;;;;5033681;28;20033;-81
2023/05/05 06:01:05;;;;;;;8.15;2.65;;;21.20;50.60;;;;;;5050552;28;20029;-81
2023/05/05 06:03:31;;;;;;;10.75;2.70;;;21.20;50.60;;;;;;5049506;28;20494;-81
2023/05/05 06:05:58;;;;;;;9.57;2.55;;;21.20;50.80;;;;;;5050585;28;20021;-81
2023/05/05 06:08:25;;;;;;;9.68;2.85;;;21.20;50.70;;;;;;5049910;28;20048;-81
2023/05/05 06:10:52;;;;;;;11.05;3.13;;;21.20;50.80;;;;;;5050454;28;20190;-80
2023/05/05 06:13:20;;;;;;;9.82;2.80;;;21.20;50.90;;;;;;5050499;28;20021;-80
2023/05/05 06:15:48;;;;;;;11.10;3.03;;;21.20;50.60;;;;;;5050339;28;20506;-80
2023/05/05 06:18:15;;;;;;;6.95;3.00;;;21.20;50.90;;;;;;5033277;28;20586;-81
2023/05/05 06:20:42;;;;;;;7.03;2.92;;;21.20;50.80;;;;;;5050178;28;20104;-81
2023/05/05 06:23:08;;;;;;;7.15;2.50;;;21.20;50.60;;;;;;5050293;28;20064;-81
2023/05/05 06:25:38;;;;;;;7.93;2.97;;;21.20;50.90;;;;;;5050542;28;20375;-81
2023/05/05 06:28:04;;;;;;;5.55;2.38;;;21.20;50.90;;;;;;5051115;28;20035;-82
2023/05/05 06:30:30;;;;;;;7.55;2.95;;;21.20;50.90;;;;;;5051791;28;20080;-82
2023/05/05 06:32:55;;;;;;;10.30;3.20;;;21.20;50.80;;;;;;5051264;28;20036;-82
2023/05/05 06:35:21;;;;;;;9.55;3.20;;;21.20;50.80;;;;;;5051393;28;20017;-82
2023/05/05 06:37:47;;;;;;;4.97;2.58;;;21.20;50.90;;;;;;5050831;28;20032;-82
2023/05/05 06:40:13;;;;;;;9.15;3.05;;;21.20;51.00;;;;;;5051194;28;20029;-82
2023/05/05 06:42:40;;;;;;;6.28;2.90;;;21.20;50.90;;;;;;5051220;28;20371;-82
2023/05/05 06:45:09;;;;;;;6.75;3.40;;;21.20;50.90;;;;;;5049966;28;20033;-81
2023/05/05 06:47:34;;;;;;;6.93;2.95;;;21.20;50.90;;;;;;5049573;28;20029;-82
2023/05/05 06:50:00;;;;;;;8.48;2.88;;;21.20;50.90;;;;;;5066508;28;20482;-81
2023/05/05 06:52:26;;;;;;;8.43;2.75;;;21.20;51.10;;;;;;5051234;28;20095;-79
2023/05/05 06:54:52;;;;;;;7.03;2.92;;;21.30;51.00;;;;;;5051245;28;20032;-81
2023/05/05 06:57:17;;;;;;;5.78;2.53;;;21.20;50.90;;;;;;5050895;28;20032;-81
2023/05/05 06:59:43;;;;;;;5.45;2.97;;;21.20;51.10;;;;;;5051059;28;20029;-80
2023/05/05 07:02:09;;;;;;;7.22;3.13;;;21.30;50.80;;;;;;5066407;28;20025;-79
2023/05/05 07:04:35;;;;;;;7.95;3.00;;;21.30;50.60;;;;;;5049729;28;20033;-79
2023/05/05 07:07:01;;;;;;;8.13;3.10;;;21.30;51.50;;;;;;5051070;28;20040;-81
2023/05/05 07:09:26;;;;;;;9.02;3.00;;;21.30;51.70;;;;;;5049369;28;20033;-81
2023/05/05 07:11:52;;;;;;;9.57;2.92;;;21.30;51.00;;;;;;5051108;28;20025;-81
2023/05/05 07:14:18;;;;;;;7.00;3.08;;;21.30;51.90;;;;;;5052965;28;20111;-81
2023/05/05 07:16:44;;;;;;;13.40;3.10;;;21.30;51.90;;;;;;5055142;28;20535;-81
2023/05/05 07:19:09;;;;;;;8.40;3.35;;;21.30;51.80;;;;;;5058550;28;20027;-80
2023/05/05 07:21:35;;;;;;;7.38;2.78;;;21.30;51.40;;;;;;5084715;28;20028;-80
2023/05/05 07:24:04;;;;;;;7.05;3.25;;;21.30;51.60;;;;;;5071683;28;20025;-80
2023/05/05 07:26:30;;;;;;;16.33;3.20;;;21.30;51.70;;;;;;5070893;28;20048;-81
2023/05/05 07:28:57;;;;;;;21.17;3.40;;;21.40;53.20;;;;;;5067550;28;20091;-81
2023/05/05 07:31:25;;;;;;;15.60;3.40;;;21.50;54.10;;;;;;5051029;28;20036;-81
2023/05/05 07:36:55;;;;;;;15.30;4.45;;;21.60;54.60;;;;;;4970808;23;20060;-81
2023/05/05 07:39:20;;;;;;;20.83;4.60;;;21.70;55.40;;;;;;4933050;29;20397;-81
2023/05/05 07:41:46;;;;;;;13.80;3.83;;;21.70;56.60;;;;;;4894157;29;20043;-80
2023/05/05 07:44:12;;;;;;;16.45;3.70;;;21.60;54.10;;;;;;4914928;29;20431;-79
2023/05/05 07:46:38;;;;;;;11.57;3.33;;;21.60;51.40;;;;;;4918041;29;20039;-80
2023/05/05 07:49:03;;;;;;;9.80;3.80;;;21.50;50.30;;;;;;4931123;29;20066;-80
2023/05/05 07:51:30;;;;;;;16.85;3.88;;;21.50;51.10;;;;;;4923258;29;20043;-79
2023/05/05 07:53:56;;;;;;;27.58;3.90;;;21.60;50.40;;;;;;4914663;29;20078;-78
2023/05/05 07:56:22;;;;;;;19.65;3.55;;;21.60;51.10;;;;;;4914131;29;20123;-75
2023/05/05 07:58:55;;;;;;;14.90;3.80;;;21.60;50.80;;;;;;4916084;29;20036;-80
2023/05/05 08:01:21;;;;;;;32.53;4.38;;;21.60;50.70;;;;;;4923839;29;20052;-76
2023/05/05 08:03:47;;;;;;;11.60;3.80;;;21.60;51.10;;;;;;4921360;29;20043;-74
2023/05/05 08:06:20;;;;;;;17.92;3.80;;;21.60;51.00;;;;;;4936206;28;20024;-75
2023/05/05 08:08:50;;;;;;;13.68;4.10;;;21.70;50.90;;;;;;4932617;29;20031;-75
2023/05/05 08:11:20;;;;;;;10.18;3.42;;;21.70;51.00;;;;;;4931421;29;20115;-75
2023/05/05 08:13:47;;;;;;;24.50;4.07;;;21.70;51.10;;;;;;4931710;29;20452;-76
2023/05/05 08:16:16;;;;;;;13.45;4.15;;;21.70;51.50;;;;;;4932874;29;20517;-75
2023/05/05 08:18:42;;;;;;;12.77;3.65;;;21.70;51.00;;;;;;4899271;29;20095;-76
2023/05/05 08:21:09;;;;;;;12.35;3.67;;;21.70;51.20;;;;;;4931754;29;20063;-75
2023/05/05 08:23:35;;;;;;;14.50;3.85;;;21.70;51.40;;;;;;4933142;29;20024;-74
2023/05/05 08:26:05;;;;;;;20.40;3.83;;;21.70;50.70;;;;;;4931462;29;20031;-75
2023/05/05 08:28:35;;;;;;;14.82;4.00;;;21.60;50.10;;;;;;4929211;29;20062;-75
2023/05/05 08:31:05;;;;;;;10.73;3.80;;;21.70;49.80;;;;;;4932438;29;20482;-75
2023/05/05 08:33:31;;;;;;;15.98;4.05;;;21.70;50.10;;;;;;4932239;29;20489;-76
2023/05/05 08:35:57;;;;;;;17.50;3.80;;;21.70;50.20;;;;;;4902235;29;20464;-75
2023/05/05 08:38:23;;;;;;;15.77;4.20;;;21.70;50.40;;;;;;4932447;29;20102;-74
2023/05/05 08:40:52;;;;;;;9.65;3.45;;;21.70;50.40;;;;;;4931613;29;20071;-75
2023/05/05 08:43:24;;;;;;;16.67;3.80;;;21.80;50.60;;;;;;4932453;29;20066;-75
2023/05/05 08:45:50;;;;;;;11.75;3.83;;;21.80;50.70;;;;;;4911165;29;20096;-75
2023/05/05 08:48:21;;;;;;;12.02;3.72;;;21.80;50.70;;;;;;4916042;29;20510;-76
2023/05/05 08:50:58;;;;;;;13.82;4.65;;;21.80;50.80;;;;;;4931944;29;20031;-74
2023/05/05 08:53:43;;;;;;;19.15;4.80;;;21.80;51.20;;;;;;4933628;29;20122;-74
2023/05/05 08:56:12;;;;;;;12.77;4.28;;;21.80;51.10;;;;;;4915451;29;20043;-75
2023/05/05 08:58:38;;;;;;;17.38;4.20;;;21.80;51.30;;;;;;4947886;29;20031;-75
2023/05/05 09:01:05;;;;;;;13.75;4.72;;;21.90;51.50;;;;;;4928910;29;20118;-75
2023/05/05 09:03:34;;;;;;;11.65;3.97;;;21.90;51.60;;;;;;4927674;29;20054;-74
2023/05/05 09:06:00;;;;;;;18.77;4.60;;;21.90;51.70;;;;;;4929257;29;20099;-75
2023/05/05 09:08:27;;;;;;;14.13;4.22;;;21.90;51.70;;;;;;4930975;29;20569;-78
2023/05/05 09:10:53;;;;;;;21.45;5.05;;;21.90;51.90;;;;;;4929376;29;20023;-79
2023/05/05 09:13:19;;;;;;;20.63;5.68;;;20.90;46.90;;;;;;4915370;29;20122;-79
2023/05/05 09:15:45;;;;;;;24.67;5.72;;;21.20;48.80;;;;;;4932833;29;20078;-78
2023/05/05 09:18:13;;;;;;;20.23;5.82;;;21.30;49.10;;;;;;4918951;29;20035;-79
2023/05/05 09:20:40;;;;;;;20.05;4.47;;;21.40;48.20;;;;;;4928882;29;20408;-77
2023/05/05 09:23:11;;;;;;;17.15;5.15;;;21.50;47.70;;;;;;4930275;29;20039;-78
2023/05/05 09:25:38;;;;;;;22.63;5.95;;;21.60;47.00;;;;;;4924114;29;20103;-78
2023/05/05 09:28:09;;;;;;;18.63;5.35;;;21.60;47.00;;;;;;4930415;29;20042;-77
2023/05/05 09:30:35;;;;;;;14.65;4.82;;;21.60;46.50;;;;;;4932587;28;20119;-75
2023/05/05 09:33:01;;;;;;;17.48;4.97;;;21.60;45.50;;;;;;4900701;29;20038;-75
2023/05/05 09:35:28;;;;;;;17.13;4.10;;;21.60;45.60;;;;;;4933032;29;20024;-75
2023/05/05 09:38:09;;;;;;;11.90;4.57;;;21.60;45.60;;;;;;4932425;29;20031;-74
2023/05/05 09:40:45;;;;;;;14.95;4.28;;;21.60;44.50;;;;;;4915822;29;20040;-74
2023/05/05 09:43:11;;;;;;;18.45;4.70;;;21.70;45.80;;;;;;4932458;29;20371;-75
2023/05/05 09:45:37;;;;;;;12.20;3.83;;;21.70;46.30;;;;;;4916151;29;20135;-74
2023/05/05 09:48:07;;;;;;;10.57;3.72;;;21.70;46.40;;;;;;4931288;29;20055;-74
2023/05/05 09:50:43;;;;;;;16.38;4.68;;;21.70;46.40;;;;;;4931038;29;20099;-72
2023/05/05 09:53:09;;;;;;;21.83;4.80;;;21.80;47.10;;;;;;4933046;29;20032;-72
2023/05/05 09:55:36;;;;;;;22.65;5.72;;;21.70;47.30;;;;;;4915761;29;20038;-73
2023/05/05 09:58:19;;;;;;;28.60;5.10;;;21.80;47.60;;;;;;4931577;29;20042;-73
2023/05/05 10:00:46;;;;;;;18.73;4.45;;;21.80;47.70;;;;;;4900171;29;20044;-73
2023/05/05 10:03:12;;;;;;;18.38;4.78;;;21.80;47.60;;;;;;4932720;29;20509;-72
2023/05/05 10:05:55;;;;;;;21.30;5.03;;;21.80;47.60;;;;;;4915254;29;20774;-73
2023/05/05 10:08:24;;;;;;;15.30;5.65;;;21.80;46.90;;;;;;4948191;29;20039;-71
2023/05/05 10:10:56;;;;;;;19.35;6.00;;;21.80;46.70;;;;;;4936712;29;20043;-73
2023/05/05 10:13:25;;;;;;;15.15;4.45;;;21.80;46.30;;;;;;4934879;29;20043;-74
2023/05/05 10:15:53;;;;;;;15.00;4.10;;;21.80;45.80;;;;;;4951587;28;20027;-74
2023/05/05 10:18:27;;;;;;;9.90;3.80;;;21.80;45.60;;;;;;4950130;29;20130;-74
2023/05/05 10:21:02;;;;;;;12.48;4.32;;;21.80;45.20;;;;;;4951542;28;20393;-74
2023/05/05 10:23:33;;;;;;;10.30;3.80;;;21.80;45.10;;;;;;4942880;28;20036;-73
2023/05/05 10:26:09;;;;;;;13.25;4.75;;;21.70;44.80;;;;;;4932542;29;20032;-72
2023/05/05 10:28:50;;;;;;;13.93;4.18;;;21.80;44.00;;;;;;4932195;29;20032;-72
2023/05/05 10:31:22;;;;;;;10.93;3.80;;;21.90;44.90;;;;;;4911639;29;20486;-73
2023/05/05 10:33:54;;;;;;;15.20;4.53;;;22.10;43.80;;;;;;4913663;29;20024;-73
2023/05/05 10:36:20;;;;;;;15.32;4.85;;;22.10;45.30;;;;;;4913398;29;20028;-73
2023/05/05 10:38:48;;;;;;;22.05;4.45;;;22.00;47.20;;;;;;4911834;29;20028;-73
2023/05/05 10:41:17;;;;;;;17.80;4.50;;;22.00;47.70;;;;;;4913179;29;20040;-72
2023/05/05 10:43:43;;;;;;;19.15;4.18;;;22.00;46.60;;;;;;4913073;29;20083;-73
2023/05/05 10:46:10;;;;;;;15.57;4.40;;;22.00;48.00;;;;;;4912015;29;20056;-73
2023/05/05 10:48:58;;;;;;;9.73;4.30;;;22.00;47.80;;;;;;4912838;29;20087;-72
2023/05/05 10:51:52;;;;;;;21.75;4.53;;;22.00;47.00;;;;;;4917184;29;20032;-75
2023/05/05 10:54:27;;;;;;;14.40;4.22;;;21.90;47.90;;;;;;4917388;29;20034;-76
2023/05/05 10:56:53;;;;;;;16.40;4.10;;;21.90;46.70;;;;;;4917040;29;20032;-76
2023/05/05 10:59:40;;;;;;;22.17;4.72;;;21.90;46.00;;;;;;4931451;29;20478;-71
2023/05/05 11:02:25;;;;;;;13.18;3.83;;;21.90;46.70;;;;;;4915431;29;20044;-74
2023/05/05 11:05:03;;;;;;;13.75;4.20;;;21.90;47.00;;;;;;4917364;29;20387;-73
2023/05/05 11:07:30;;;;;;;11.05;3.85;;;21.90;45.70;;;;;;4916610;29;20110;-73
2023/05/05 11:10:03;;;;;;;15.45;4.22;;;21.90;45.90;;;;;;4916935;29;20028;-73
2023/05/05 11:12:31;;;;;;;16.15;4.03;;;21.90;46.00;;;;;;4916875;29;20039;-73
2023/05/05 11:15:24;;;;;;;14.82;4.03;;;21.90;46.30;;;;;;4899662;29;20506;-73
2023/05/05 11:17:51;;;;;;;11.80;3.60;;;21.80;46.20;;;;;;4916603;29;20031;-74
2023/05/05 11:20:38;;;;;;;14.02;3.63;;;21.80;46.40;;;;;;4916734;29;20516;-74
2023/05/05 11:23:04;;;;;;;12.10;4.18;;;21.90;46.70;;;;;;4916232;29;20123;-74
2023/05/05 11:25:36;;;;;;;9.65;3.97;;;21.80;46.80;;;;;;4916564;29;20127;-74
2023/05/05 11:28:10;;;;;;;10.95;3.72;;;21.80;47.00;;;;;;4913241;29;20036;-75
2023/05/05 11:30:56;;;;;;;14.18;4.20;;;21.80;47.10;;;;;;4915849;29;20032;-73
2023/05/05 11:33:22;;;;;;;11.07;4.18;;;21.80;47.10;;;;;;4916005;29;20383;-75
2023/05/05 11:36:03;;;;;;;9.95;3.75;;;21.80;47.30;;;;;;4916369;29;20036;-75
2023/05/05 11:38:35;;;;;;;12.85;3.75;;;21.80;47.20;;;;;;4914856;29;20095;-74
2023/05/05 11:41:14;;;;;;;8.48;3.63;;;21.80;47.30;;;;;;4916180;29;20056;-74
2023/05/05 11:43:43;;;;;;;10.05;3.38;;;21.80;47.50;;;;;;4916707;29;20474;-74
2023/05/05 11:46:14;;;;;;;9.40;4.05;;;21.80;47.60;;;;;;4914418;29;20067;-74
2023/05/05 11:48:48;;;;;;;9.75;4.00;;;21.80;47.60;;;;;;4915851;29;20510;-74
2023/05/05 11:51:15;;;;;;;12.15;4.00;;;21.80;47.60;;;;;;4930589;29;20033;-74
2023/05/05 11:53:46;;;;;;;12.40;4.13;;;21.80;47.60;;;;;;4916101;29;20032;-74
2023/05/05 11:56:17;;;;;;;11.57;4.15;;;21.80;47.50;;;;;;4914979;29;20042;-74
2023/05/05 11:59:05;;;;;;;10.10;3.60;;;21.80;47.60;;;;;;4914201;29;20039;-74
2023/05/05 12:01:31;;;;;;;9.45;3.78;;;21.80;47.70;;;;;;4911318;29;20136;-74
2023/05/05 12:03:58;;;;;;;8.35;3.88;;;21.80;47.80;;;;;;4914557;29;20063;-74
2023/05/05 12:06:23;;;;;;;13.68;4.10;;;21.80;47.70;;;;;;4914797;29;20112;-74
2023/05/05 12:08:49;;;;;;;12.77;4.88;;;21.80;47.60;;;;;;4927137;29;20028;-74
2023/05/05 12:11:15;;;;;;;13.63;5.32;;;21.80;47.80;;;;;;4934518;29;20063;-74
2023/05/05 12:13:41;;;;;;;18.00;5.55;;;21.80;48.30;;;;;;4933483;29;20042;-74
2023/05/05 12:16:18;;;;;;;19.50;5.22;;;21.90;49.30;;;;;;4933361;29;20028;-74
2023/05/05 12:18:44;;;;;;;14.10;5.40;;;21.90;49.20;;;;;;4934093;29;20079;-68
2023/05/05 12:21:16;;;;;;;16.27;5.07;;;21.90;48.80;;;;;;4934869;29;20430;-69
2023/05/05 12:23:42;;;;;;;11.05;4.72;;;21.90;48.40;;;;;;4934412;29;20028;-68
2023/05/05 12:26:31;;;;;;;16.55;4.93;;;21.80;47.90;;;;;;4934634;29;20552;-68
2023/05/05 12:28:58;;;;;;;14.90;4.80;;;21.90;48.30;;;;;;4932638;29;20083;-68
2023/05/05 12:31:37;;;;;;;18.45;5.22;;;21.90;48.20;;;;;;4934272;29;20034;-69
2023/05/05 12:34:05;;;;;;;16.67;5.37;;;21.90;48.40;;;;;;4948604;29;20059;-68
2023/05/05 12:36:35;;;;;;;14.07;4.47;;;21.90;48.50;;;;;;4944107;28;20434;-68
2023/05/05 12:39:02;;;;;;;15.57;4.53;;;21.80;48.10;;;;;;4933592;29;20040;-68
2023/05/05 12:41:28;;;;;;;10.15;4.63;;;21.90;47.70;;;;;;4933712;29;20066;-68
2023/05/05 12:43:55;;;;;;;15.57;4.20;;;21.80;47.30;;;;;;4948700;29;20066;-68
2023/05/05 12:46:22;;;;;;;14.45;4.90;;;21.80;45.60;;;;;;4932992;29;20031;-69
2023/05/05 12:49:04;;;;;;;12.90;3.92;;;21.80;46.00;;;;;;4931533;29;20032;-76
2023/05/05 12:51:34;;;;;;;14.85;4.93;;;21.80;45.30;;;;;;4932178;29;20106;-73
2023/05/05 12:54:08;;;;;;;12.52;4.30;;;21.80;45.70;;;;;;4931515;29;20042;-73